createdAt,value
2018-09-30T00:49:37.076Z,62.28
2018-09-30T00:52:05.684Z,61.93
2018-09-30T00:54:34.223Z,62.25
2018-09-30T00:57:02.764Z,63.05
2018-09-30T00:59:31.392Z,63.02
2018-09-30T01:01:59.920Z,64.09
2018-09-30T01:04:28.644Z,64.30
2018-09-30T01:06:57.360Z,64.08
2018-09-30T01:09:25.937Z,64.62
2018-09-30T01:11:54.732Z,64.62
2018-09-30T01:14:23.349Z,63.99
2018-09-30T01:16:51.939Z,63.99
2018-09-30T01:19:20.475Z,63.83
2018-09-30T01:21:49.057Z,63.17
2018-09-30T01:24:17.621Z,63.75
2018-09-30T01:26:46.250Z,64.04
2018-09-30T01:29:14.796Z,63.65
2018-09-30T01:31:43.357Z,63.72
2018-09-30T01:34:11.934Z,64.61
2018-09-30T01:36:40.535Z,64.88
2018-09-30T01:39:09.111Z,65.19
2018-09-30T01:41:37.708Z,64.85
2018-09-30T01:44:06.291Z,64.16
2018-09-30T01:46:34.950Z,64.78
2018-09-30T01:49:03.751Z,64.13
2018-09-30T01:51:32.312Z,64.05
2018-09-30T01:54:00.876Z,63.83
2018-09-30T01:56:29.408Z,64.27
2018-09-30T01:58:57.960Z,65.48
2018-09-30T02:01:26.499Z,65.44
2018-09-30T02:03:55.046Z,65.14
2018-09-30T02:06:23.603Z,65.76
2018-09-30T02:08:52.162Z,65.30
2018-09-30T02:11:20.685Z,65.08
2018-09-30T02:14:05.459Z,64.81
2018-09-30T02:16:33.975Z,65.26
2018-09-30T02:19:02.543Z,65.06
2018-09-30T02:21:31.089Z,65.63
2018-09-30T02:23:59.636Z,66.21
2018-09-30T02:26:28.159Z,65.98
2018-09-30T02:28:56.709Z,66.88
2018-09-30T02:31:25.307Z,66.26
2018-09-30T02:33:53.824Z,66.32
2018-09-30T02:36:22.358Z,66.38
2018-09-30T02:38:50.903Z,66.99
2018-09-30T02:41:19.456Z,66.41
2018-09-30T02:43:47.988Z,66.36
2018-09-30T02:46:16.545Z,66.36
2018-09-30T02:48:45.095Z,65.81
2018-09-30T02:51:13.659Z,66.41
2018-09-30T02:53:42.193Z,66.08
2018-09-30T02:56:10.704Z,66.07
2018-09-30T02:58:39.238Z,66.88
2018-09-30T03:01:07.824Z,67.73
2018-09-30T03:03:36.349Z,67.15
2018-09-30T03:06:04.886Z,66.95
2018-09-30T03:08:38.618Z,67.14
2018-09-30T03:11:07.570Z,67.30
2018-09-30T03:13:36.126Z,67.24
2018-09-30T03:16:04.668Z,66.80
2018-09-30T03:18:33.186Z,67.45
2018-09-30T03:21:01.737Z,67.19
2018-09-30T03:23:30.283Z,66.30
2018-09-30T03:25:58.822Z,67.22
2018-09-30T03:28:27.356Z,66.98
2018-09-30T03:30:55.995Z,66.16
2018-09-30T03:33:24.556Z,66.80
2018-09-30T03:35:53.095Z,66.60
2018-09-30T03:38:21.627Z,66.77
2018-09-30T03:40:50.237Z,67.00
2018-09-30T03:43:18.775Z,66.48
2018-09-30T03:45:47.300Z,66.81
2018-09-30T03:48:15.861Z,66.72
2018-09-30T03:50:44.493Z,66.31
2018-09-30T03:53:13.020Z,66.24
2018-09-30T03:55:41.556Z,66.24
2018-09-30T03:58:10.106Z,65.96
2018-09-30T04:00:38.663Z,66.05
2018-09-30T04:03:07.212Z,66.62
2018-09-30T04:05:35.752Z,65.77
2018-09-30T04:10:31.935Z,66.64
2018-09-30T04:13:00.523Z,66.73
2018-09-30T04:15:29.088Z,67.05
2018-09-30T04:17:57.611Z,67.04
2018-09-30T04:20:26.187Z,66.98
2018-09-30T04:22:54.812Z,67.40
2018-09-30T04:25:23.410Z,67.34
2018-09-30T04:27:51.943Z,67.35
2018-09-30T04:30:20.484Z,67.46
2018-09-30T04:32:49.028Z,68.09
2018-09-30T04:35:17.584Z,67.19
2018-09-30T04:37:46.095Z,67.35
2018-09-30T04:40:14.648Z,67.40
2018-09-30T04:42:43.188Z,68.01
2018-09-30T04:45:11.843Z,68.14
2018-09-30T04:47:40.364Z,67.53
2018-09-30T04:50:09.045Z,67.64
2018-09-30T04:52:37.507Z,67.78
2018-09-30T04:55:06.087Z,68.27
2018-09-30T04:57:34.602Z,67.97
2018-09-30T05:00:03.151Z,67.62
2018-09-30T05:02:31.780Z,67.38
2018-09-30T05:05:00.330Z,67.27
2018-09-30T05:13:09.411Z,67.00
2018-09-30T05:15:37.939Z,67.19
2018-09-30T05:18:06.580Z,66.88
2018-09-30T05:20:35.120Z,67.12
2018-09-30T05:23:03.719Z,66.75
2018-09-30T05:25:32.262Z,66.83
2018-09-30T05:28:00.803Z,66.46
2018-09-30T05:30:29.337Z,66.89
2018-09-30T05:32:57.863Z,67.63
2018-09-30T05:35:26.404Z,67.53
2018-09-30T05:37:55.048Z,68.66
2018-09-30T05:40:23.571Z,67.46
2018-09-30T05:42:52.115Z,67.42
2018-09-30T05:45:20.683Z,67.63
2018-09-30T05:47:49.250Z,67.77
2018-09-30T05:50:20.853Z,67.21
2018-09-30T05:52:49.631Z,67.61
2018-09-30T05:55:18.167Z,67.98
2018-09-30T05:57:50.730Z,67.24
2018-09-30T06:00:19.259Z,67.13
2018-09-30T06:02:47.790Z,67.01
2018-09-30T06:05:16.349Z,67.26
2018-09-30T06:07:45.122Z,67.36
2018-09-30T06:10:13.759Z,66.82
2018-09-30T06:12:42.305Z,66.77
2018-09-30T06:15:10.973Z,67.16
2018-09-30T06:17:39.559Z,66.97
2018-09-30T06:20:08.519Z,67.30
2018-09-30T06:22:37.056Z,66.50
2018-09-30T06:25:05.863Z,66.92
2018-09-30T06:27:34.415Z,67.08
2018-09-30T06:30:03.031Z,67.25
2018-09-30T06:32:31.592Z,66.75
2018-09-30T06:35:00.176Z,66.21
2018-09-30T06:37:28.816Z,65.74
2018-09-30T06:39:57.380Z,66.47
2018-09-30T06:42:25.924Z,66.72
2018-09-30T06:44:54.512Z,66.80
2018-09-30T06:47:23.066Z,67.62
2018-09-30T06:49:51.615Z,67.02
2018-09-30T06:52:20.171Z,66.50
2018-09-30T06:54:48.756Z,65.27
2018-09-30T06:57:17.336Z,64.35
2018-09-30T06:59:45.877Z,64.16
2018-09-30T07:02:15.118Z,64.19
2018-09-30T07:04:43.721Z,64.16
2018-09-30T07:07:12.236Z,64.18
2018-09-30T07:09:40.772Z,63.94
2018-09-30T07:12:09.457Z,63.11
2018-09-30T07:14:38.056Z,63.02
2018-09-30T07:17:06.680Z,63.36
2018-09-30T09:39:55.971Z,44.44
2018-09-30T09:42:24.491Z,43.96
2018-09-30T09:44:53.020Z,40.95
2018-09-30T09:47:21.569Z,40.62
2018-09-30T09:49:50.124Z,38.85
2018-09-30T09:52:18.683Z,39.70
2018-09-30T09:54:47.255Z,37.14
2018-09-30T09:57:15.840Z,38.11
2018-09-30T09:59:44.414Z,36.50
2018-09-30T10:02:13.834Z,34.96
2018-09-30T10:04:42.580Z,35.46
2018-09-30T10:07:11.164Z,35.90
2018-09-30T10:09:39.721Z,35.01
2018-09-30T10:12:08.345Z,34.84
2018-09-30T10:14:36.972Z,35.57
2018-09-30T10:17:05.525Z,36.54
2018-09-30T10:19:34.168Z,37.46
2018-09-30T10:22:02.787Z,37.39
2018-09-30T10:24:31.393Z,38.86
2018-09-30T10:26:59.969Z,37.25
2018-09-30T10:29:28.491Z,37.70
2018-09-30T10:31:57.082Z,39.00
2018-09-30T10:34:25.664Z,38.67
2018-09-30T10:36:54.233Z,39.25
2018-09-30T10:39:22.924Z,37.55
2018-09-30T10:41:51.378Z,38.61
2018-09-30T10:44:19.929Z,39.60
2018-09-30T10:46:48.487Z,39.29
2018-09-30T10:49:17.210Z,38.77
2018-09-30T10:51:45.816Z,38.70
2018-09-30T10:54:14.355Z,39.99
2018-09-30T10:56:42.904Z,38.98
2018-09-30T10:59:11.572Z,38.81
2018-09-30T11:01:40.131Z,36.15
2018-09-30T11:04:08.779Z,37.59
2018-09-30T11:06:37.342Z,37.51
2018-09-30T11:09:06.896Z,37.26
2018-09-30T11:11:35.452Z,38.43
2018-09-30T11:14:04.500Z,36.44
2018-09-30T11:16:33.090Z,36.63
2018-09-30T11:19:01.756Z,36.66
2018-09-30T11:21:30.293Z,36.97
2018-09-30T11:23:58.834Z,36.04
2018-09-30T11:26:27.436Z,37.48
2018-09-30T11:28:56.008Z,33.64
2018-09-30T11:31:24.627Z,36.14
2018-09-30T11:33:53.170Z,36.90
2018-09-30T11:36:21.767Z,35.20
2018-09-30T11:38:50.324Z,35.90
2018-09-30T11:41:18.912Z,36.16
2018-09-30T11:43:47.442Z,36.80
2018-09-30T11:46:16.005Z,36.75
2018-09-30T11:48:44.558Z,36.35
2018-09-30T11:51:13.121Z,35.35
2018-09-30T11:53:41.692Z,35.82
2018-09-30T11:56:10.319Z,35.09
2018-09-30T11:58:38.944Z,35.14
2018-09-30T12:01:07.756Z,34.05
2018-09-30T12:03:36.301Z,35.29
2018-09-30T12:06:04.845Z,34.21
2018-09-30T12:08:33.387Z,34.82
2018-09-30T12:11:01.915Z,34.54
2018-09-30T12:13:30.447Z,34.63
2018-09-30T12:15:58.971Z,35.13
2018-09-30T12:18:27.496Z,35.53
2018-09-30T12:20:56.041Z,35.70
2018-09-30T12:23:24.620Z,35.48
2018-09-30T12:25:53.309Z,36.08
2018-09-30T12:28:21.845Z,35.12
2018-09-30T12:30:50.455Z,34.90
2018-09-30T12:33:18.996Z,35.72
2018-09-30T12:35:47.565Z,35.08
2018-09-30T12:38:16.109Z,35.74
2018-09-30T12:40:44.687Z,36.19
2018-09-30T12:43:13.225Z,35.92
2018-09-30T12:45:41.784Z,35.95
2018-09-30T12:48:10.585Z,36.33
2018-09-30T12:50:39.094Z,35.24
2018-09-30T12:53:07.787Z,34.21
2018-09-30T12:55:36.332Z,35.07
2018-09-30T12:58:04.885Z,35.79
2018-09-30T13:00:33.464Z,36.00
2018-09-30T13:03:02.064Z,35.29
2018-09-30T13:05:30.633Z,34.71
2018-09-30T13:07:59.208Z,34.60
2018-09-30T13:10:27.768Z,34.43
2018-09-30T13:12:57.708Z,35.49
2018-09-30T13:15:26.463Z,35.59
2018-09-30T13:17:55.027Z,34.99
2018-09-30T13:20:23.560Z,35.49
2018-09-30T13:22:52.095Z,35.60
2018-09-30T13:25:20.636Z,36.13
2018-09-30T13:27:49.192Z,35.74
2018-09-30T13:30:17.825Z,36.11
2018-09-30T13:32:46.427Z,35.49
2018-09-30T13:35:14.967Z,35.05
2018-09-30T13:37:43.561Z,36.15
2018-09-30T13:40:12.195Z,35.79
2018-09-30T13:42:40.747Z,35.69
2018-09-30T13:45:09.749Z,36.50
2018-09-30T13:47:38.335Z,36.30
2018-09-30T13:50:07.120Z,36.09
2018-09-30T13:52:35.863Z,35.29
2018-09-30T13:55:04.596Z,35.32
2018-09-30T13:57:33.147Z,34.93
2018-09-30T14:00:01.685Z,36.04
2018-09-30T14:02:30.340Z,36.05
2018-09-30T14:04:59.761Z,35.31
2018-09-30T14:07:28.299Z,36.02
2018-09-30T14:09:56.832Z,36.51
2018-09-30T14:12:27.079Z,36.39
2018-09-30T14:14:56.224Z,35.17
2018-09-30T14:17:25.176Z,35.95
2018-09-30T14:19:53.708Z,35.24
2018-09-30T14:22:22.257Z,34.97
2018-09-30T14:24:50.812Z,36.04
2018-09-30T14:27:19.553Z,34.25
2018-09-30T14:29:48.140Z,35.46
2018-09-30T14:32:16.721Z,35.27
2018-09-30T14:34:45.288Z,36.02
2018-09-30T14:37:13.880Z,36.18
2018-09-30T14:39:42.482Z,35.57
2018-09-30T14:42:11.232Z,35.55
2018-09-30T14:44:39.783Z,36.11
2018-09-30T14:47:08.392Z,35.69
2018-09-30T14:49:36.965Z,35.09
2018-09-30T14:52:05.530Z,35.44
2018-09-30T14:54:34.168Z,35.83
2018-09-30T14:57:02.793Z,36.35
2018-09-30T14:59:31.355Z,36.13
2018-09-30T15:01:59.924Z,35.29
2018-09-30T15:04:28.481Z,35.48
2018-09-30T15:06:57.024Z,35.75
2018-09-30T15:09:25.572Z,34.99
2018-09-30T15:11:54.162Z,35.58
2018-09-30T15:14:22.772Z,35.22
2018-09-30T15:16:51.377Z,35.20
2018-09-30T15:19:19.966Z,35.15
2018-09-30T15:21:48.594Z,35.41
2018-09-30T15:24:17.287Z,35.44
2018-09-30T15:26:45.840Z,34.59
2018-09-30T15:29:14.431Z,35.17
2018-09-30T15:31:42.997Z,35.05
2018-09-30T15:34:11.746Z,35.55
2018-09-30T15:36:40.308Z,34.84
2018-09-30T15:39:10.877Z,36.60
2018-09-30T15:41:39.988Z,36.00
2018-09-30T15:44:08.653Z,36.80
2018-09-30T15:46:37.247Z,37.67
2018-09-30T15:49:06.067Z,37.21
2018-09-30T15:51:34.684Z,37.65
2018-09-30T15:54:03.521Z,37.62
2018-09-30T15:56:32.148Z,37.67
2018-09-30T15:59:00.747Z,38.05
2018-09-30T16:01:29.324Z,38.40
2018-09-30T16:03:58.690Z,39.69
2018-09-30T16:06:27.232Z,40.48
2018-09-30T16:08:55.796Z,41.44
2018-09-30T16:11:24.380Z,41.77
2018-09-30T16:13:52.960Z,42.66
2018-09-30T16:16:21.804Z,44.47
2018-09-30T17:38:16.644Z,54.54
2018-09-30T17:40:45.232Z,54.47
2018-09-30T17:43:13.788Z,54.63
2018-09-30T17:45:42.411Z,54.83
2018-09-30T17:48:11.121Z,55.91
2018-09-30T17:50:39.683Z,55.57
2018-09-30T17:53:08.231Z,55.35
2018-09-30T17:55:36.787Z,56.02
2018-09-30T17:58:05.394Z,56.43
2018-09-30T18:00:33.990Z,55.21
2018-09-30T18:03:02.562Z,55.99
2018-09-30T18:05:31.191Z,56.00
2018-09-30T18:07:59.771Z,56.11
2018-09-30T18:10:28.299Z,56.05
2018-09-30T18:12:57.004Z,56.09
2018-09-30T18:15:25.576Z,57.19
2018-09-30T18:17:54.185Z,56.35
2018-09-30T18:20:22.764Z,57.32
2018-09-30T18:22:51.372Z,56.99
2018-09-30T18:25:19.920Z,57.49
2018-09-30T18:27:48.519Z,56.27
2018-09-30T18:30:17.152Z,57.00
2018-09-30T18:32:45.694Z,57.81
2018-09-30T18:35:14.253Z,58.51
2018-09-30T18:37:42.789Z,58.63
2018-09-30T18:40:11.382Z,58.13
2018-09-30T18:42:39.885Z,59.10
2018-09-30T18:45:08.495Z,59.50
2018-09-30T18:47:37.042Z,58.89
2018-09-30T18:50:05.729Z,58.28
2018-09-30T18:52:34.382Z,58.65
2018-09-30T18:55:03.123Z,59.44
2018-09-30T18:57:31.710Z,58.93
2018-09-30T19:00:00.240Z,59.32
2018-09-30T19:02:28.828Z,59.58
2018-09-30T19:04:57.371Z,58.98
2018-09-30T19:07:25.934Z,59.26
2018-09-30T19:09:54.520Z,59.17
2018-09-30T19:12:23.080Z,58.21
2018-09-30T19:14:51.624Z,58.67
2018-09-30T19:17:20.168Z,58.18
2018-09-30T19:19:48.735Z,57.97
2018-09-30T19:22:17.277Z,57.90
2018-09-30T19:24:45.927Z,57.82
2018-09-30T19:27:14.539Z,57.57
2018-09-30T19:29:43.072Z,57.64
2018-09-30T19:32:11.640Z,57.72
2018-09-30T19:34:40.193Z,57.93
2018-09-30T19:37:09.024Z,58.03
2018-09-30T19:39:37.576Z,57.76
2018-09-30T19:42:06.141Z,57.89
2018-09-30T19:44:34.686Z,58.11
2018-09-30T19:47:03.300Z,58.13
2018-09-30T19:49:31.844Z,57.93
2018-09-30T19:52:00.401Z,58.09
2018-09-30T19:54:28.963Z,57.84
2018-09-30T19:56:57.508Z,57.50
2018-09-30T19:59:26.081Z,57.76
2018-09-30T20:01:54.639Z,57.08
2018-09-30T20:04:23.191Z,57.29
2018-09-30T20:06:51.768Z,57.18
2018-09-30T20:09:20.496Z,57.85
2018-09-30T20:11:48.940Z,58.03
2018-09-30T20:14:17.557Z,58.57
2018-09-30T20:16:46.381Z,58.06
2018-09-30T20:19:14.920Z,58.45
2018-09-30T20:21:43.468Z,58.54
2018-09-30T20:24:12.042Z,58.39
2018-09-30T20:26:40.983Z,59.36
2018-09-30T20:29:09.540Z,59.27
2018-09-30T20:31:38.132Z,59.14
2018-09-30T20:34:06.989Z,59.71
2018-09-30T20:36:35.746Z,59.55
2018-09-30T20:39:05.135Z,59.84
2018-09-30T20:41:33.758Z,60.12
2018-09-30T20:44:02.385Z,60.09
2018-09-30T20:46:30.951Z,59.05
2018-09-30T20:48:59.515Z,59.34
2018-09-30T20:51:28.163Z,59.59
2018-09-30T20:53:56.709Z,59.97
2018-09-30T20:56:25.288Z,60.06
2018-09-30T20:58:53.828Z,60.21
2018-09-30T21:01:22.465Z,59.72
2018-09-30T21:03:51.040Z,60.13
2018-09-30T21:06:24.853Z,60.75
2018-09-30T21:08:53.421Z,61.71
2018-09-30T21:11:22.047Z,61.43
2018-09-30T21:13:50.625Z,61.62
2018-09-30T21:16:19.176Z,61.96
2018-09-30T21:18:47.778Z,61.30
2018-09-30T21:21:16.336Z,61.08
2018-09-30T21:23:44.872Z,61.32
2018-09-30T21:26:13.417Z,61.21
2018-09-30T21:28:42.125Z,61.18
2018-09-30T21:31:10.755Z,61.23
2018-09-30T21:33:39.323Z,61.33
2018-09-30T21:36:07.911Z,60.37
2018-09-30T21:38:36.532Z,60.89
2018-09-30T21:41:05.140Z,62.30
2018-09-30T21:43:33.718Z,62.62
2018-09-30T21:46:02.421Z,62.51
2018-09-30T21:48:31.127Z,62.37
2018-09-30T21:50:59.649Z,62.48
2018-09-30T21:53:28.199Z,62.38
2018-09-30T21:55:56.738Z,63.13
2018-09-30T21:58:25.303Z,62.93
2018-09-30T22:01:00.140Z,63.25
2018-09-30T22:03:29.023Z,62.78
2018-09-30T22:05:57.760Z,63.76
2018-09-30T22:08:26.363Z,63.73
2018-09-30T22:10:54.956Z,63.66
2018-09-30T22:13:23.495Z,63.62
2018-09-30T22:15:52.053Z,63.91
2018-09-30T23:06:56.110Z,64.35
2018-09-30T23:09:25.045Z,63.69
2018-09-30T23:11:53.657Z,64.39
2018-09-30T23:14:22.327Z,64.20
2018-09-30T23:16:51.024Z,64.92
2018-09-30T23:19:19.574Z,64.17
2018-09-30T23:21:48.212Z,64.67
2018-09-30T23:24:16.992Z,65.05
2018-09-30T23:26:45.635Z,65.59
2018-09-30T23:29:14.256Z,65.35
2018-09-30T23:31:42.944Z,64.83
2018-09-30T23:34:11.829Z,64.59
2018-09-30T23:36:40.498Z,64.87
2018-09-30T23:39:11.531Z,64.72
2018-09-30T23:41:40.055Z,63.97
2018-09-30T23:44:08.903Z,64.64
2018-09-30T23:46:37.471Z,64.86
2018-09-30T23:49:06.642Z,65.03
2018-09-30T23:51:35.400Z,65.29
2018-09-30T23:54:03.951Z,64.80
2018-09-30T23:56:32.496Z,65.86
2018-09-30T23:59:01.044Z,65.65
